Airfield :
LOGIN :

Register | Disclaimer

   EN    FR    IT 

 










Legend :    VFR   Marginal VFR   IFR   Intensive IFR   Very Intensive IFR
Visi :
Ceiling :
>= 8 km
>= 3000ft
5 to 8 km
1000 to 3000 ft
1500m to 5 km
500 to 1000 ft
800 to 1500m
200 to 500 ft
< 800m
< 200 ft
Symbols :   Thunderstorms  Fog  Heavy snow  Heavy precipitations  Wind > 20 kt
SIGMETs :     Misc.  Thunderstorms  Icing  Turbulence  Mountain Waves  Volcanic Ashes







- Airport Elevation : 461 ft
- IATA code : WIE


ETOU - Wiesbaden Army

CURRENT METAR :
  • 220356Z AUTO 00000KT 9999 OVC180 08/07 A3012 RMK AO2 SLP202 T00780066 $

EXPIRED METARs :
  • 220256Z AUTO 29003KT 9999 BKN180 08/06 A3012 RMK AO2 SLP202 T00750064 57003 $
  • 220156Z AUTO 00000KT 9999 CLR 08/07 A3012 RMK AO2 SLP202 T00790070 $

TAF TAF ETOU
Valid from the 22 at 03:00 until the 23 at 09:00 UTC


220304Z 2203/2309 09006KT 9999 SCT100 QNH3011INS
BECMG 2213/2214 26006KT 9999 FEW030 SCT100 QNH3013INS
BECMG 2220/2221 31006KT 9999 BKN040 QNH3017INS TX19/2215Z TN07/2204Z
No reported NOTAMs for that airfield.



MET'MAP, your aeronautical weather chart ! - Copyright ORBIFLY December 2007 - Disclaimer

ORBIFLY MET'MAP TEAM :

Programming & Development : Alexandra Zaïnal
Concept & Development : Baudouin d'Aumeries
Co-Development & Prog : Marc-Olivier Méhu
Technical & hardware support : Manuel Goepfert

Contact : metmap@orbifly.com




SOURCES & CREDITS :

   NOAA